createdAt,value
2022-08-05T12:08:10.499Z,29.90
2022-08-05T12:10:43.301Z,29.96
2022-08-05T12:13:28.355Z,30.08
2022-08-05T12:16:14.484Z,30.16
2022-08-05T12:18:49.114Z,30.26
2022-08-05T12:21:47.099Z,30.40
2022-08-05T12:24:21.685Z,30.50
2022-08-05T12:26:55.223Z,30.51
2022-08-05T12:29:27.689Z,30.61
2022-08-05T12:32:01.712Z,30.71
2022-08-05T12:34:37.043Z,30.82
2022-08-05T12:37:17.343Z,30.79
2022-08-05T12:39:53.972Z,30.92
2022-08-05T12:42:29.137Z,31.00
2022-08-05T12:45:09.735Z,31.16
2022-08-05T12:48:01.043Z,31.22
2022-08-05T12:50:32.123Z,31.36
2022-08-05T12:53:02.980Z,31.46
2022-08-05T12:55:33.242Z,31.58
2022-08-05T12:58:50.631Z,31.64
2022-08-05T13:02:02.133Z,31.71
2022-08-05T13:03:48.881Z,31.82
2022-08-05T13:06:21.881Z,31.91
2022-08-05T13:08:52.931Z,31.98
2022-08-05T13:12:01.553Z,32.03
2022-08-05T13:14:35.897Z,32.12
2022-08-05T13:17:20.677Z,32.20
2022-08-05T13:20:10.163Z,32.18
2022-08-05T13:22:52.967Z,32.26
2022-08-05T13:25:52.486Z,32.32
2022-08-05T13:28:14.299Z,32.39
2022-08-05T13:30:44.587Z,32.50
2022-08-05T13:34:24.219Z,32.56
2022-08-05T13:36:09.634Z,32.54
2022-08-05T13:38:42.770Z,32.65
2022-08-05T13:41:13.731Z,32.66
2022-08-05T13:43:54.474Z,32.67
2022-08-05T13:49:16.586Z,32.60
2022-08-05T13:51:47.226Z,32.64
2022-08-05T13:54:20.956Z,32.65
2022-08-05T13:56:55.072Z,32.59
2022-08-05T13:59:27.127Z,32.56
2022-08-05T14:02:01.926Z,32.56
2022-08-05T14:04:54.766Z,32.55
2022-08-05T14:08:01.010Z,32.69
2022-08-05T14:10:31.053Z,32.82
2022-08-05T14:13:01.557Z,32.90
2022-08-05T14:16:05.724Z,33.04
2022-08-05T14:18:23.337Z,33.19
2022-08-05T14:20:55.194Z,33.26
2022-08-05T14:23:28.080Z,33.19
2022-08-05T14:26:06.791Z,33.11
2022-08-05T14:28:37.067Z,32.98
2022-08-05T14:32:03.251Z,32.73
2022-08-05T14:34:13.489Z,32.67
2022-08-05T14:36:43.864Z,32.70
2022-08-05T14:39:23.217Z,32.86
2022-08-05T14:42:19.684Z,33.00
2022-08-05T14:44:46.025Z,33.21
2022-08-05T14:47:16.412Z,33.31
2022-08-05T14:50:18.192Z,33.38
2022-08-05T14:52:56.974Z,33.45
2022-08-05T14:55:39.478Z,33.53
2022-08-05T14:58:13.698Z,33.44
2022-08-05T15:00:58.048Z,33.36
2022-08-05T15:03:34.029Z,33.30
2022-08-05T15:06:14.806Z,33.41
2022-08-05T15:08:59.777Z,33.48
2022-08-05T15:11:51.573Z,33.51
2022-08-05T15:14:34.562Z,33.60
2022-08-05T15:17:46.502Z,33.55
2022-08-05T15:20:00.213Z,33.43
2022-08-05T15:22:32.086Z,33.35
2022-08-05T15:25:11.814Z,33.31
2022-08-05T15:27:52.471Z,33.22
2022-08-05T15:30:26.438Z,33.08
2022-08-05T15:32:56.715Z,33.13
2022-08-05T15:35:28.885Z,33.21
2022-08-05T15:38:34.338Z,33.30
2022-08-05T15:41:04.110Z,33.19
2022-08-05T15:43:48.350Z,33.03
2022-08-05T15:46:21.165Z,32.90
2022-08-05T15:49:01.437Z,32.90
2022-08-05T15:52:13.240Z,32.73
2022-08-05T15:54:34.571Z,32.63
2022-08-05T15:57:07.371Z,32.48
2022-08-05T15:59:38.438Z,32.38
2022-08-05T16:02:09.558Z,32.28
2022-08-05T16:04:45.163Z,32.18
2022-08-05T16:07:16.305Z,32.09
2022-08-05T16:09:49.383Z,32.10
2022-08-05T16:12:21.687Z,32.06
2022-08-05T16:14:51.858Z,32.01
2022-08-05T16:17:23.359Z,31.99
2022-08-05T16:20:04.905Z,32.20
2022-08-05T16:22:36.609Z,32.38
2022-08-05T16:25:09.779Z,32.39
2022-08-05T16:28:00.236Z,32.28
2022-08-05T16:30:34.289Z,32.23
2022-08-05T16:33:06.488Z,32.24
2022-08-05T16:35:42.904Z,32.13
2022-08-05T16:38:24.095Z,32.02
2022-08-05T16:41:00.058Z,31.93
2022-08-05T16:43:33.209Z,31.84
2022-08-05T16:46:24.354Z,31.74
2022-08-05T16:48:55.657Z,31.66
2022-08-05T16:51:30.738Z,31.49
2022-08-05T16:54:17.144Z,31.45
2022-08-05T16:56:51.897Z,31.54
2022-08-05T16:59:22.644Z,31.65
2022-08-05T17:01:55.879Z,31.89
2022-08-05T17:04:28.325Z,32.04
2022-08-05T17:07:03.501Z,32.31
2022-08-05T17:09:57.794Z,32.43
2022-08-05T17:12:51.158Z,32.28
2022-08-05T17:15:20.202Z,32.05
2022-08-05T17:17:55.210Z,31.89
2022-08-05T17:20:26.600Z,31.78
2022-08-05T17:22:57.707Z,31.51
2022-08-05T17:25:33.786Z,31.34
2022-08-05T17:28:04.955Z,31.16
2022-08-05T17:30:35.192Z,31.00
2022-08-05T17:33:21.561Z,30.84
2022-08-05T17:36:09.991Z,30.64
2022-08-05T17:38:43.571Z,30.48
2022-08-05T17:41:22.800Z,30.42
2022-08-05T17:44:04.456Z,30.29
2022-08-05T17:46:35.412Z,30.15
2022-08-05T17:49:05.716Z,30.04
2022-08-05T17:51:40.307Z,29.93
2022-08-05T17:54:10.981Z,29.82
2022-08-05T17:56:41.267Z,29.69
2022-08-05T17:59:14.995Z,29.58
2022-08-05T18:01:51.465Z,29.48
2022-08-05T18:04:27.799Z,29.34
2022-08-05T18:07:00.260Z,29.25
2022-08-05T18:09:58.805Z,29.17
2022-08-05T18:12:22.234Z,29.06
2022-08-05T18:14:54.508Z,28.95
2022-08-05T18:18:01.166Z,28.73
2022-08-05T18:20:15.583Z,28.61
2022-08-05T18:22:54.478Z,28.51
2022-08-05T18:25:32.795Z,28.51
2022-08-05T18:28:04.890Z,28.36
2022-08-05T18:30:35.981Z,28.27
2022-08-05T18:33:13.496Z,28.21
2022-08-05T18:36:00.553Z,28.12
2022-08-05T18:38:36.414Z,28.08
2022-08-05T18:41:56.736Z,27.94
2022-08-05T18:44:06.524Z,27.88
2022-08-05T18:46:38.283Z,27.80
2022-08-05T18:49:30.746Z,27.73
2022-08-05T18:52:33.561Z,27.65
2022-08-05T18:55:10.706Z,27.57
2022-08-05T18:57:43.360Z,27.48
2022-08-05T19:00:28.477Z,27.45
2022-08-05T19:03:03.688Z,27.40
2022-08-05T19:06:11.364Z,27.30
2022-08-05T19:08:30.458Z,27.09
2022-08-05T19:11:04.901Z,26.60
2022-08-05T19:13:36.723Z,26.11
2022-08-05T19:16:25.197Z,25.70
2022-08-05T19:18:59.405Z,25.34
2022-08-05T19:21:34.565Z,25.23
2022-08-05T19:24:12.589Z,25.15
2022-08-05T19:26:54.314Z,25.03
2022-08-05T19:29:36.451Z,24.81
2022-08-05T19:32:11.425Z,24.67
2022-08-05T19:34:42.176Z,24.53
2022-08-05T19:37:30.002Z,24.37
2022-08-05T19:40:17.204Z,24.27
2022-08-05T19:43:00.790Z,24.14
2022-08-05T19:45:36.900Z,23.99
2022-08-05T19:48:07.331Z,23.86
2022-08-05T19:50:45.132Z,23.79
2022-08-05T19:53:15.325Z,23.73
2022-08-05T19:56:13.999Z,23.72
2022-08-05T19:58:53.376Z,23.55
2022-08-05T20:01:28.189Z,23.49
2022-08-05T20:03:59.263Z,23.43
2022-08-05T20:06:29.657Z,23.39
2022-08-05T20:09:04.762Z,23.31
2022-08-05T20:11:48.260Z,23.15
2022-08-05T20:14:27.088Z,23.01
2022-08-05T20:16:59.313Z,22.79
2022-08-05T20:19:36.116Z,22.84
2022-08-05T20:22:06.704Z,22.81
2022-08-05T20:24:40.091Z,22.75
2022-08-05T20:27:11.278Z,22.67
2022-08-05T20:29:42.124Z,22.54
2022-08-05T20:32:28.055Z,22.49
2022-08-05T20:34:58.456Z,22.34
2022-08-05T20:38:06.836Z,22.17
2022-08-05T20:40:18.984Z,22.15
2022-08-05T20:42:49.137Z,22.09
2022-08-05T20:45:21.003Z,22.06
2022-08-05T20:47:51.293Z,21.88
2022-08-05T20:50:22.308Z,21.72
2022-08-05T20:52:52.810Z,21.81
2022-08-05T20:56:07.223Z,21.70
2022-08-05T20:58:15.356Z,21.69
2022-08-05T21:00:51.791Z,21.54
2022-08-05T21:03:27.167Z,21.59
2022-08-05T21:06:04.798Z,21.41
2022-08-05T21:08:55.191Z,21.38
2022-08-05T21:12:07.185Z,21.33
2022-08-05T21:14:15.753Z,21.29
2022-08-05T21:16:46.005Z,21.20
2022-08-05T21:19:16.339Z,21.28
2022-08-05T21:21:50.861Z,21.23
2022-08-05T21:24:21.472Z,21.20
2022-08-05T21:26:58.497Z,20.85
2022-08-05T21:29:32.024Z,20.71
2022-08-05T21:32:03.158Z,20.39
2022-08-05T21:34:35.680Z,20.19
2022-08-05T21:37:08.246Z,20.06
2022-08-05T21:39:40.318Z,19.69
2022-08-05T21:42:30.802Z,19.50
2022-08-05T21:45:02.124Z,19.16
2022-08-05T21:47:54.753Z,18.91
2022-08-05T21:50:22.757Z,18.91
2022-08-05T21:52:53.801Z,18.89
2022-08-05T21:55:43.047Z,18.93
2022-08-05T21:58:20.418Z,18.87
2022-08-05T22:01:01.402Z,18.87
2022-08-05T22:03:48.452Z,19.00
2022-08-05T22:06:22.367Z,18.95
2022-08-05T22:08:53.446Z,19.04
2022-08-05T22:11:34.468Z,18.96
2022-08-05T22:14:35.613Z,18.93
2022-08-05T22:16:56.931Z,18.92
2022-08-05T22:20:00.867Z,18.90
2022-08-05T22:22:28.202Z,18.93
2022-08-05T22:25:24.042Z,19.01
2022-08-05T22:28:12.098Z,19.09
2022-08-05T22:30:55.554Z,19.01
2022-08-05T22:33:56.824Z,19.06
2022-08-05T22:36:19.109Z,19.09
2022-08-05T22:38:54.211Z,19.05
2022-08-05T22:42:05.122Z,19.06
2022-08-05T22:44:14.646Z,19.06
2022-08-05T22:46:49.320Z,19.04
2022-08-05T22:50:18.244Z,19.02
2022-08-05T22:52:22.889Z,19.07
2022-08-05T22:55:04.460Z,19.10
2022-08-05T22:57:51.606Z,19.02
2022-08-05T23:00:23.490Z,18.95
2022-08-05T23:02:53.941Z,18.87
2022-08-05T23:05:24.406Z,18.86
2022-08-05T23:07:54.975Z,18.89
2022-08-05T23:10:25.790Z,18.80
2022-08-05T23:12:56.113Z,18.90
2022-08-05T23:15:29.788Z,18.90
2022-08-05T23:18:06.187Z,18.85
2022-08-05T23:20:43.233Z,18.86
2022-08-05T23:23:13.652Z,18.84
2022-08-05T23:25:53.250Z,18.79
2022-08-05T23:28:29.243Z,18.70
2022-08-05T23:31:16.411Z,18.80
2022-08-05T23:34:03.078Z,18.84
2022-08-05T23:36:38.426Z,18.61
2022-08-05T23:39:09.808Z,18.75
2022-08-05T23:41:48.431Z,18.76
2022-08-05T23:44:22.631Z,18.74
2022-08-05T23:46:56.079Z,18.75
2022-08-05T23:49:35.856Z,18.75
2022-08-05T23:52:25.595Z,18.74
2022-08-05T23:54:58.269Z,18.77
2022-08-05T23:57:28.678Z,18.77
